createdAt,value
2016-07-14T00:00:52.999Z,1110.14
2016-07-14T00:01:53.005Z,1110.13
2016-07-14T00:02:52.991Z,1109.88
2016-07-14T00:03:53.000Z,1109.58
2016-07-14T00:04:52.997Z,1109.36
2016-07-14T00:05:53.001Z,1109.35
2016-07-14T00:06:53.007Z,1109.08
2016-07-14T00:07:53.011Z,1108.88
2016-07-14T00:08:53.004Z,1108.47
2016-07-14T00:09:52.999Z,1108.45
2016-07-14T00:10:53.018Z,1107.93
2016-07-14T00:11:53.000Z,1107.74
2016-07-14T00:12:53.033Z,1107.56
2016-07-14T00:13:52.999Z,1107.43
2016-07-14T00:14:53.005Z,1106.9
2016-07-14T00:15:53.014Z,1106.73
2016-07-14T00:16:53.018Z,1106.18
2016-07-14T00:17:53.014Z,1106
2016-07-14T00:18:53.019Z,1105.72
2016-07-14T00:19:53.009Z,1105.25
2016-07-14T00:20:53.001Z,1104.74
2016-07-14T00:21:53.026Z,1104.16
2016-07-14T00:22:53.045Z,1103.55
2016-07-14T00:23:53.005Z,1103.23
2016-07-14T00:24:53.033Z,1102.79
2016-07-14T00:25:52.993Z,1102.42
2016-07-14T00:26:53.014Z,1101.73
2016-07-14T00:27:53.059Z,1101.26
2016-07-14T00:28:53.014Z,1100.92
2016-07-14T00:29:53.038Z,1100.59
2016-07-14T00:30:53.045Z,1100.23
2016-07-14T00:31:53.023Z,1099.78
2016-07-14T00:32:53.022Z,1099.65
2016-07-14T00:33:53.051Z,1099.25
2016-07-14T00:34:53.039Z,1098.68
2016-07-14T00:35:53.045Z,1098.34
2016-07-14T00:36:53.047Z,1097.86
2016-07-14T00:37:53.058Z,1097.44
2016-07-14T00:38:53.030Z,1097.06
2016-07-14T00:39:53.036Z,1096.63
2016-07-14T00:40:53.091Z,1096.06
2016-07-14T00:41:53.045Z,1095.33
2016-07-14T00:42:53.031Z,1095.05
2016-07-14T00:43:53.068Z,1094.51
2016-07-14T00:44:53.039Z,1093.69
2016-07-14T00:45:53.094Z,1093.02
2016-07-14T00:46:53.076Z,1092.35
2016-07-14T00:47:53.066Z,1091.53
2016-07-14T00:48:53.022Z,1090.57
2016-07-14T00:49:53.077Z,1090.03
2016-07-14T00:50:53.059Z,1088.93
2016-07-14T00:51:53.064Z,1087.92
2016-07-14T00:52:53.059Z,1086.98
2016-07-14T00:53:53.075Z,1086.19
2016-07-14T00:54:53.051Z,1085.17
2016-07-14T00:55:53.135Z,1083.94
2016-07-14T00:56:53.036Z,1082.89
2016-07-14T00:57:53.031Z,1081.93
2016-07-14T00:58:53.047Z,1081
2016-07-14T00:59:53.064Z,1079.91
2016-07-14T01:00:53.042Z,1078.83
2016-07-14T01:01:53.038Z,1077.63
2016-07-14T01:02:53.040Z,1076.66
2016-07-14T01:03:53.067Z,1075.56
2016-07-14T01:04:53.078Z,1074.38
2016-07-14T01:05:53.056Z,1073.24
2016-07-14T01:06:53.063Z,1072.15
2016-07-14T01:07:53.063Z,1070.99
2016-07-14T01:08:53.122Z,1069.81
2016-07-14T01:09:53.038Z,1068.74
2016-07-14T01:10:53.076Z,1067.66
2016-07-14T01:11:53.069Z,1066.53
2016-07-14T01:12:53.101Z,1065.56
2016-07-14T01:13:53.054Z,1064.34
2016-07-14T01:14:53.062Z,1063.24
2016-07-14T01:15:53.052Z,1062.36
2016-07-14T01:16:53.071Z,1061.48
2016-07-14T01:17:53.065Z,1060.27
2016-07-14T01:18:53.067Z,1059.68
2016-07-14T01:19:53.075Z,1058.9
2016-07-14T01:20:53.062Z,1057.64
2016-07-14T01:21:53.059Z,1056.82
2016-07-14T01:22:53.066Z,1056.16
2016-07-14T01:23:53.057Z,1055.22
2016-07-14T01:24:53.097Z,1054.39
2016-07-14T01:25:53.067Z,1053.96
2016-07-14T01:26:53.069Z,1053.21
2016-07-14T01:27:53.081Z,1052.54
2016-07-14T01:28:53.088Z,1052.16
2016-07-14T01:29:53.088Z,1051.42
2016-07-14T01:30:53.079Z,1050.45
2016-07-14T01:31:53.065Z,1050.19
2016-07-14T01:32:53.057Z,1049.58
2016-07-14T01:33:53.094Z,1048.88
2016-07-14T01:34:53.067Z,1047.92
2016-07-14T01:35:53.065Z,1047.75
2016-07-14T01:36:53.065Z,1047.11
2016-07-14T01:37:53.058Z,1046.81
2016-07-14T01:38:53.080Z,1046.45
2016-07-14T01:39:53.069Z,1045.54
2016-07-14T01:40:53.076Z,1045.24
2016-07-14T01:41:53.068Z,1044.84
2016-07-14T01:42:53.078Z,1044.28
2016-07-14T01:43:53.069Z,1043.64
2016-07-14T01:44:53.102Z,1042.91
2016-07-14T01:45:53.098Z,1042.19
2016-07-14T01:46:53.094Z,1041.46
2016-07-14T01:47:53.872Z,1041.02
2016-07-14T01:48:53.380Z,1040.35
2016-07-14T01:49:53.207Z,1039.53
2016-07-14T01:50:53.700Z,1038.97
2016-07-14T01:51:53.425Z,1037.64
2016-07-14T01:52:53.183Z,1036.88
2016-07-14T01:53:53.202Z,1036.25
2016-07-14T01:54:53.159Z,1035.35
2016-07-14T01:55:54.191Z,1035
2016-07-14T01:56:53.441Z,1034.26
2016-07-14T01:57:53.218Z,1033.07
2016-07-14T01:58:53.132Z,1032.55
2016-07-14T01:59:53.128Z,1031.71
2016-07-14T02:00:53.157Z,1031.04
2016-07-14T02:01:53.177Z,1030.66
2016-07-14T02:02:53.100Z,1029.88
2016-07-14T02:03:53.082Z,1029.44
2016-07-14T02:04:53.105Z,1028.76
2016-07-14T02:05:53.125Z,1027.92
2016-07-14T02:06:53.129Z,1027.14
2016-07-14T02:07:53.107Z,1026.42
2016-07-14T02:08:53.097Z,1026.22
2016-07-14T02:09:53.103Z,1025.47
2016-07-14T02:10:53.136Z,1024.17
2016-07-14T02:11:53.147Z,1024.27
2016-07-14T02:12:53.143Z,1023.78
2016-07-14T02:13:53.099Z,1023.12
2016-07-14T02:14:53.139Z,1022.7
2016-07-14T02:15:53.098Z,1022.13
2016-07-14T02:16:53.102Z,1021.74
2016-07-14T02:17:53.133Z,1021.63
2016-07-14T02:18:53.171Z,1021.11
2016-07-14T02:19:53.127Z,1020.85
2016-07-14T02:20:53.103Z,1020.36
2016-07-14T02:21:53.113Z,1019.89
2016-07-14T02:22:53.161Z,1019.31
2016-07-14T02:23:53.112Z,1018.94
2016-07-14T02:24:53.144Z,1018.58
2016-07-14T02:25:53.105Z,1017.84
2016-07-14T02:26:53.131Z,1017.37
2016-07-14T02:27:53.117Z,1017.11
2016-07-14T02:28:53.132Z,1016.61
2016-07-14T02:29:53.125Z,1016.22
2016-07-14T02:30:53.127Z,1015.32
2016-07-14T02:31:53.142Z,1015.47
2016-07-14T02:32:53.147Z,1015.05
2016-07-14T02:33:53.134Z,1014.28
2016-07-14T02:34:53.140Z,1013.54
2016-07-14T02:35:53.138Z,1013.24
2016-07-14T02:36:53.174Z,1012.74
2016-07-14T02:37:53.143Z,1012.47
2016-07-14T02:38:53.125Z,1011.77
2016-07-14T02:39:53.126Z,1011.05
2016-07-14T02:40:53.136Z,1011.01
2016-07-14T02:41:53.128Z,1010.37
2016-07-14T02:42:53.149Z,1010.18
2016-07-14T02:43:53.130Z,1010.02
2016-07-14T02:44:53.120Z,1009.28
2016-07-14T02:45:53.170Z,1009.1
2016-07-14T02:46:53.128Z,1008.57
2016-07-14T02:47:53.131Z,1008.3
2016-07-14T02:48:53.156Z,1008.08
2016-07-14T02:49:53.145Z,1007.77
2016-07-14T02:50:53.146Z,1007.41
2016-07-14T02:51:53.164Z,1007.16
2016-07-14T02:52:53.129Z,1006.22
2016-07-14T02:53:53.220Z,1006.56
2016-07-14T02:54:53.139Z,1005.54
2016-07-14T02:55:53.167Z,1005.37
2016-07-14T02:56:53.168Z,1005.25
2016-07-14T02:57:53.174Z,1004.75
2016-07-14T02:58:53.148Z,1004.25
2016-07-14T02:59:53.130Z,1003.8
2016-07-14T03:00:53.150Z,1003.49
2016-07-14T03:01:53.199Z,1003.6
2016-07-14T03:02:53.131Z,1003.07
2016-07-14T03:03:53.146Z,1002.76
2016-07-14T03:04:53.162Z,1002.3
2016-07-14T03:05:53.176Z,1001.97
2016-07-14T03:06:53.206Z,1001.89
2016-07-14T03:07:53.165Z,1001.58
2016-07-14T03:08:53.146Z,1001.08
2016-07-14T03:09:53.157Z,1001.19
2016-07-14T03:10:53.145Z,1000.59
2016-07-14T03:11:53.143Z,1000.73
2016-07-14T03:12:53.145Z,1000.64
2016-07-14T03:13:53.131Z,1000.53
2016-07-14T03:14:53.135Z,1000.7
2016-07-14T03:15:53.149Z,1000.74
2016-07-14T03:16:53.200Z,1000.7
2016-07-14T03:17:53.169Z,1000.5
2016-07-14T03:18:53.147Z,1000.46
2016-07-14T03:19:53.157Z,1000.44
2016-07-14T03:20:53.161Z,1000.73
2016-07-14T03:21:53.163Z,1000.65
2016-07-14T03:22:53.169Z,1000.95
2016-07-14T03:23:53.166Z,1000.96
2016-07-14T03:24:53.161Z,1001.18
2016-07-14T03:25:53.176Z,1001.27
2016-07-14T03:26:53.169Z,1001.22
2016-07-14T03:27:53.159Z,1001.76
2016-07-14T03:28:53.168Z,1001.11
2016-07-14T03:29:53.175Z,1001.84
2016-07-14T03:30:53.172Z,1001.64
2016-07-14T03:31:53.183Z,1001.89
2016-07-14T03:32:53.205Z,1001.8
2016-07-14T03:33:53.192Z,1002.38
2016-07-14T03:34:53.197Z,1002.04
2016-07-14T03:35:53.163Z,1002.06
2016-07-14T03:36:53.167Z,1002.12
2016-07-14T03:37:53.200Z,1001.91
2016-07-14T03:38:53.174Z,1002.13
2016-07-14T03:39:53.194Z,1002.2
2016-07-14T03:40:53.196Z,1001.92
2016-07-14T03:41:53.170Z,1002.16
2016-07-14T03:42:53.187Z,1001.49
2016-07-14T03:43:53.161Z,1001.6
2016-07-14T03:44:53.175Z,1002.03
2016-07-14T03:45:53.184Z,1001.82
2016-07-14T03:46:53.193Z,1001.79
2016-07-14T03:47:53.180Z,1002.04
2016-07-14T03:48:53.165Z,1002.05
2016-07-14T03:49:53.230Z,1002.14
2016-07-14T03:50:53.194Z,1002.46
2016-07-14T03:51:53.170Z,1003.14
2016-07-14T03:52:53.201Z,1003.43
2016-07-14T03:53:53.185Z,1003.93
2016-07-14T03:54:53.175Z,1004.49
2016-07-14T03:55:53.185Z,1004.9
2016-07-14T03:56:53.194Z,1005.79
2016-07-14T03:57:53.769Z,1006.23
2016-07-14T03:58:53.176Z,1006.73
2016-07-14T03:59:53.212Z,1007.6
2016-07-14T04:00:53.190Z,1008.28
2016-07-14T04:01:53.193Z,1009.01
2016-07-14T04:02:53.229Z,1009.48
2016-07-14T04:03:53.201Z,1009.99
2016-07-14T04:04:53.188Z,1010.78
2016-07-14T04:05:53.196Z,1011.73
2016-07-14T04:06:53.216Z,1012.68
2016-07-14T04:07:53.197Z,1013.05
2016-07-14T04:08:53.204Z,1014.04
2016-07-14T04:09:53.210Z,1015.04
2016-07-14T04:10:53.223Z,1016.15
2016-07-14T04:11:53.199Z,1017.7
2016-07-14T04:12:53.202Z,1019.08
2016-07-14T04:13:53.206Z,1020.51
2016-07-14T04:14:53.230Z,1021.43
2016-07-14T04:15:53.195Z,1022.43
2016-07-14T04:16:53.196Z,1024.11
2016-07-14T04:17:53.187Z,1025.12
2016-07-14T04:18:53.198Z,1026.48
2016-07-14T04:19:53.248Z,1027.76
2016-07-14T04:20:53.222Z,1028.21
2016-07-14T04:21:53.215Z,1028.87
2016-07-14T04:22:53.202Z,1029.79
2016-07-14T04:23:53.198Z,1030.58
2016-07-14T04:24:53.195Z,1031.45
2016-07-14T04:25:53.196Z,1031.74
2016-07-14T04:26:53.225Z,1032.62
2016-07-14T04:27:53.200Z,1033.18
2016-07-14T04:28:53.206Z,1033.59
2016-07-14T04:29:53.204Z,1034.28
2016-07-14T04:30:53.196Z,1034.54
2016-07-14T04:31:53.194Z,1035.02
2016-07-14T04:32:53.208Z,1035.16
2016-07-14T04:33:53.226Z,1036.12
2016-07-14T04:34:53.233Z,1037.06
2016-07-14T04:35:53.286Z,1037.44
2016-07-14T04:36:53.256Z,1038.2
2016-07-14T04:37:53.265Z,1038.39
2016-07-14T04:38:53.238Z,1039.39
2016-07-14T04:39:53.233Z,1040.52
2016-07-14T04:40:53.243Z,1041.48
2016-07-14T04:41:53.279Z,1042.16
2016-07-14T04:42:53.243Z,1042.8
2016-07-14T04:43:53.234Z,1043.84
2016-07-14T04:44:53.277Z,1044.66
2016-07-14T04:45:53.227Z,1045.42
2016-07-14T04:46:53.269Z,1046.5
2016-07-14T04:47:53.231Z,1047.55
2016-07-14T04:48:53.218Z,1048.41
2016-07-14T04:49:53.229Z,1049.49
2016-07-14T04:50:53.228Z,1050.28
2016-07-14T04:51:53.231Z,1051.6
2016-07-14T04:52:53.226Z,1052.38
2016-07-14T04:53:53.227Z,1053.19
2016-07-14T04:54:53.253Z,1054.22
2016-07-14T04:55:53.241Z,1055.27
2016-07-14T04:56:53.232Z,1056.28
2016-07-14T04:57:53.228Z,1057.15
2016-07-14T04:58:53.221Z,1058.45
2016-07-14T04:59:53.225Z,1059.7
2016-07-14T05:00:53.240Z,1060.68
2016-07-14T05:01:53.228Z,1061.56
2016-07-14T05:02:53.242Z,1062.5
2016-07-14T05:03:53.242Z,1063.55
2016-07-14T05:04:53.232Z,1065.19
2016-07-14T05:05:53.242Z,1066.21
2016-07-14T05:06:53.234Z,1067.41
2016-07-14T05:07:53.289Z,1068.48
2016-07-14T05:08:53.635Z,1069.77
2016-07-14T05:09:53.258Z,1070.84
2016-07-14T05:10:53.258Z,1071.9
2016-07-14T05:11:53.262Z,1072.92
2016-07-14T05:12:53.233Z,1073.83
2016-07-14T05:13:53.266Z,1075.12
2016-07-14T05:14:53.288Z,1076.11
2016-07-14T05:15:53.257Z,1077.34
2016-07-14T05:16:53.270Z,1078.22
2016-07-14T05:17:53.296Z,1079.79
2016-07-14T05:18:53.254Z,1080.81
2016-07-14T05:19:53.256Z,1082.58
2016-07-14T05:20:53.269Z,1084.41
2016-07-14T05:21:53.269Z,1087.1
2016-07-14T05:22:53.260Z,1091.56
2016-07-14T05:23:53.253Z,1096.59
2016-07-14T05:24:53.259Z,1101.92
2016-07-14T05:25:53.273Z,1106.21
2016-07-14T05:26:53.270Z,1109.33
2016-07-14T05:27:53.261Z,1111.79
2016-07-14T05:28:53.256Z,1114.64
2016-07-14T05:29:53.263Z,1117.07
2016-07-14T05:30:53.267Z,1119.54
2016-07-14T05:31:53.254Z,1121.58
2016-07-14T05:32:53.269Z,1123.47
2016-07-14T05:33:53.275Z,1125.15
2016-07-14T05:34:53.261Z,1126.88
2016-07-14T05:35:53.828Z,1129.06
2016-07-14T05:36:53.476Z,1132.01
2016-07-14T05:37:54.015Z,1134.44
2016-07-14T05:38:53.285Z,1136.3
2016-07-14T05:39:53.260Z,1138.14
2016-07-14T05:40:53.278Z,1139.45
2016-07-14T05:41:53.258Z,1140.62
2016-07-14T05:42:53.262Z,1141.3
2016-07-14T05:43:53.255Z,1141.13
2016-07-14T05:44:53.292Z,1140.78
2016-07-14T05:45:53.259Z,1140.6
2016-07-14T05:46:53.311Z,1139.84
2016-07-14T05:47:53.272Z,1138.86
2016-07-14T05:48:53.260Z,1137.78
2016-07-14T05:49:53.260Z,1136.69
2016-07-14T05:50:53.272Z,1135.71
2016-07-14T05:51:53.275Z,1134.87
2016-07-14T05:52:53.295Z,1133.99
2016-07-14T05:53:53.273Z,1133.31
2016-07-14T05:54:53.295Z,1132.29
2016-07-14T05:55:53.271Z,1131.65
2016-07-14T05:56:53.342Z,1131.06
2016-07-14T05:57:53.299Z,1130.61
2016-07-14T05:58:53.291Z,1130.07
2016-07-14T05:59:53.294Z,1129.88
2016-07-14T06:00:53.275Z,1129.61
2016-07-14T06:01:53.289Z,1129.73
2016-07-14T06:02:53.284Z,1129.76
2016-07-14T06:03:53.281Z,1129.87
2016-07-14T06:04:53.289Z,1129.91
2016-07-14T06:05:53.309Z,1130.17
2016-07-14T06:06:53.963Z,1130.46
2016-07-14T06:07:53.287Z,1130.81
2016-07-14T06:08:53.301Z,1131.24
2016-07-14T06:09:53.318Z,1131.45
2016-07-14T06:10:53.295Z,1132
2016-07-14T06:11:53.303Z,1132.36
2016-07-14T06:12:53.297Z,1133.02
2016-07-14T06:13:53.292Z,1133.61
2016-07-14T06:14:53.294Z,1134.06
2016-07-14T06:15:53.313Z,1134.75
2016-07-14T06:16:53.307Z,1135.47
2016-07-14T06:17:53.300Z,1136.29
2016-07-14T06:18:53.298Z,1137.09
2016-07-14T06:19:53.295Z,1138.02
2016-07-14T06:20:53.302Z,1139.06
2016-07-14T06:21:53.296Z,1139.95
2016-07-14T06:22:53.320Z,1140.77
2016-07-14T06:23:53.322Z,1142.03
2016-07-14T06:24:53.301Z,1143.44
2016-07-14T06:25:53.304Z,1145.3
2016-07-14T06:26:53.299Z,1147.51
2016-07-14T06:27:53.303Z,1149.75
2016-07-14T06:28:53.320Z,1152.15
2016-07-14T06:29:53.302Z,1154.87
2016-07-14T06:30:53.516Z,1156.67
2016-07-14T06:31:53.335Z,1158.27
2016-07-14T06:32:53.303Z,1159.59
2016-07-14T06:33:53.320Z,1160.77
2016-07-14T06:34:53.341Z,1161.59
2016-07-14T06:35:53.314Z,1161.81
2016-07-14T06:36:53.321Z,1161.31
2016-07-14T06:37:53.327Z,1160.21
2016-07-14T06:38:53.327Z,1158.37
2016-07-14T06:39:53.319Z,1156.78
2016-07-14T06:40:53.325Z,1156.07
2016-07-14T06:41:53.324Z,1155.23
2016-07-14T06:42:53.319Z,1153.98
2016-07-14T06:43:53.331Z,1152.76
2016-07-14T06:44:53.538Z,1151.16
2016-07-14T06:45:53.329Z,1150.03
2016-07-14T06:46:53.323Z,1146.99
2016-07-14T06:47:53.443Z,1144.11
2016-07-14T06:48:53.320Z,1143.8
2016-07-14T06:49:53.321Z,1143.81
2016-07-14T06:50:53.359Z,1143.72
2016-07-14T06:51:53.334Z,1143.41
2016-07-14T06:52:53.322Z,1143.66
2016-07-14T06:53:53.347Z,1143.84
2016-07-14T06:54:53.330Z,1143.54
2016-07-14T06:55:53.343Z,1143.06
2016-07-14T06:56:53.353Z,1142.02
2016-07-14T06:57:53.346Z,1141.8
2016-07-14T06:58:53.333Z,1136.8
2016-07-14T06:59:53.340Z,1137.77
2016-07-14T07:00:53.353Z,1140.6
2016-07-14T07:01:53.333Z,1143
2016-07-14T07:02:53.354Z,1144.64
2016-07-14T07:03:53.361Z,1143.75
2016-07-14T07:04:53.386Z,1135.6
2016-07-14T07:05:53.364Z,1134.77
2016-07-14T07:06:53.365Z,1135.62
2016-07-14T07:07:53.339Z,1137.92
2016-07-14T07:08:53.353Z,1138
2016-07-14T07:09:53.354Z,1136.3
2016-07-14T07:10:53.359Z,1130.65
2016-07-14T07:11:53.355Z,1121.29
2016-07-14T07:12:53.350Z,1110.82
2016-07-14T07:13:53.368Z,1100.54
2016-07-14T07:15:42.513Z,1090.44
2016-07-14T07:17:16.082Z,1089.04
2016-07-14T07:18:16.049Z,1082.44
2016-07-14T07:19:16.067Z,1082.61
2016-07-14T07:20:16.545Z,1088.08
2016-07-14T07:21:16.065Z,1087.14
2016-07-14T07:22:16.066Z,1084.14
2016-07-14T07:23:16.069Z,1080.77
2016-07-14T07:24:16.053Z,1077.28
2016-07-14T07:25:16.336Z,1077.82
2016-07-14T07:26:16.082Z,1076.06
2016-07-14T07:27:16.111Z,1073.79
2016-07-14T07:28:16.051Z,1072.14
2016-07-14T07:29:16.368Z,1072.21
2016-07-14T07:30:16.391Z,1072.11
2016-07-14T07:31:16.065Z,1070.41
2016-07-14T07:32:16.067Z,1067.45
2016-07-14T07:33:16.073Z,1068.43
2016-07-14T07:34:16.081Z,1069.52
2016-07-14T07:35:16.111Z,1073.48
2016-07-14T07:36:16.059Z,1074.15
2016-07-14T07:37:16.101Z,1076.88
2016-07-14T07:38:16.078Z,1082.15
2016-07-14T07:39:16.066Z,1085.77
2016-07-14T07:40:16.477Z,1087.12
2016-07-14T07:41:16.096Z,1087.22
2016-07-14T07:42:16.100Z,1087.74
2016-07-14T07:43:16.078Z,1088.41
2016-07-14T07:44:16.092Z,1086.06
2016-07-14T07:45:16.094Z,1082.95
2016-07-14T07:46:16.097Z,1083.31
2016-07-14T07:47:16.078Z,1086.07
2016-07-14T07:48:16.072Z,1089.42
2016-07-14T07:49:16.096Z,1088.31
2016-07-14T07:50:16.089Z,1086.48
2016-07-14T07:51:16.137Z,1081.88
2016-07-14T07:52:16.080Z,1076.24
2016-07-14T07:53:16.103Z,1068.17
2016-07-14T07:54:16.078Z,1060.81
2016-07-14T07:55:16.158Z,1054.77
2016-07-14T07:56:16.100Z,1050.92
2016-07-14T07:57:16.100Z,1048.51
2016-07-14T07:58:16.099Z,1049.58
2016-07-14T07:59:16.097Z,1051.39
2016-07-14T08:00:16.097Z,1056.12
2016-07-14T08:01:16.102Z,1064.42
2016-07-14T08:02:16.094Z,1075.66
2016-07-14T08:03:16.101Z,1084.97
2016-07-14T08:04:16.109Z,1093.31
2016-07-14T08:05:16.107Z,1101.24
2016-07-14T08:06:16.142Z,1104.82
2016-07-14T08:07:16.140Z,1109.25
2016-07-14T08:08:16.159Z,1113.76
2016-07-14T08:09:16.132Z,1115.41
2016-07-14T08:10:16.132Z,1116.54
2016-07-14T08:11:16.095Z,1118.22
2016-07-14T08:12:16.114Z,1118.13
2016-07-14T08:13:16.117Z,1116.44
2016-07-14T08:14:16.126Z,1113.48
2016-07-14T08:15:16.140Z,1108.88
2016-07-14T08:16:16.136Z,1104.73
2016-07-14T08:17:16.122Z,1099.95
2016-07-14T08:18:16.129Z,1095.49
2016-07-14T08:19:16.206Z,1089.94
2016-07-14T08:20:16.128Z,1085.81
2016-07-14T08:21:16.129Z,1081.07
2016-07-14T08:22:16.128Z,1077.28
2016-07-14T08:23:16.149Z,1073.91
2016-07-14T08:24:16.138Z,1069.94
2016-07-14T08:25:16.128Z,1068.81
2016-07-14T08:26:16.164Z,1067.93
2016-07-14T08:27:16.163Z,1069.05
2016-07-14T08:28:16.119Z,1071.09
2016-07-14T08:29:16.153Z,1074.54
2016-07-14T08:30:16.157Z,1079.25
2016-07-14T08:31:16.167Z,1080.51
2016-07-14T08:32:16.143Z,1080.42
2016-07-14T08:33:16.135Z,1081.07
2016-07-14T08:34:16.130Z,1081.46
2016-07-14T08:35:16.130Z,1081.68
2016-07-14T08:36:16.133Z,1082.78
2016-07-14T08:37:16.158Z,1082.79
2016-07-14T08:38:16.135Z,1084.72
2016-07-14T08:39:16.168Z,1087.31
2016-07-14T08:40:16.134Z,1090.64
2016-07-14T08:41:16.137Z,1095.07
2016-07-14T08:42:16.146Z,1098.46
2016-07-14T08:43:16.135Z,1100.87
2016-07-14T08:44:16.141Z,1104.11
2016-07-14T08:45:16.138Z,1106.63
2016-07-14T08:46:16.145Z,1107.57
2016-07-14T08:47:16.168Z,1107.12
2016-07-14T08:48:16.202Z,1106.2
2016-07-14T08:49:16.166Z,1104.25
2016-07-14T08:50:16.159Z,1102.72
2016-07-14T08:51:16.171Z,1101.88
2016-07-14T08:52:16.174Z,1101.58
2016-07-14T08:53:16.160Z,1100.62
2016-07-14T08:54:16.161Z,1100.27
2016-07-14T08:55:16.170Z,1100.95
2016-07-14T08:56:16.161Z,1102.25
2016-07-14T08:57:16.191Z,1102.21
2016-07-14T08:58:16.154Z,1101
2016-07-14T08:59:16.194Z,1099.51
2016-07-14T09:00:16.157Z,1100.03
2016-07-14T09:01:16.160Z,1101.14
2016-07-14T09:02:16.160Z,1103.73
2016-07-14T09:03:16.154Z,1105.73
2016-07-14T09:04:16.169Z,1107.74
2016-07-14T09:05:16.168Z,1109.41
2016-07-14T09:06:16.161Z,1109.13
2016-07-14T09:07:16.157Z,1106.6
2016-07-14T09:08:16.163Z,1102.44
2016-07-14T09:09:16.169Z,1098.79
2016-07-14T09:10:16.161Z,1095.96
2016-07-14T09:11:16.171Z,1094.18
2016-07-14T09:12:16.169Z,1093.92
2016-07-14T09:13:16.190Z,1093.8
2016-07-14T09:14:16.175Z,1092.82
2016-07-14T09:15:16.210Z,1091.55
2016-07-14T09:16:16.226Z,1091.49
2016-07-14T09:17:16.219Z,1090.78
2016-07-14T09:18:16.192Z,1091.12
2016-07-14T09:19:16.189Z,1092.1
2016-07-14T09:20:16.171Z,1094.37
2016-07-14T09:21:16.195Z,1096.45
2016-07-14T09:22:16.221Z,1098.05
2016-07-14T09:23:16.208Z,1099.17
2016-07-14T09:24:16.188Z,1098.46
2016-07-14T09:25:16.224Z,1098.36
2016-07-14T09:26:16.230Z,1098.07
2016-07-14T09:27:16.238Z,1097.82
2016-07-14T09:28:16.204Z,1096.41
2016-07-14T09:29:16.226Z,1096.87
2016-07-14T09:30:16.353Z,1099.16
2016-07-14T09:31:16.227Z,1100.81
2016-07-14T09:32:16.207Z,1102.25
2016-07-14T09:33:16.262Z,1103.74
2016-07-14T09:34:16.230Z,1102.82
2016-07-14T09:35:16.200Z,1100.31
2016-07-14T09:36:16.221Z,1096.42
2016-07-14T09:37:16.481Z,1091.87
2016-07-14T09:38:16.255Z,1086.45
2016-07-14T09:39:16.283Z,1080.42
2016-07-14T09:40:16.199Z,1073.7
2016-07-14T09:41:16.838Z,1067.48
2016-07-14T09:42:16.243Z,1063
2016-07-14T09:43:16.228Z,1058.92
2016-07-14T09:44:16.274Z,1056.63
2016-07-14T09:45:16.254Z,1057.84
2016-07-14T09:46:16.201Z,1062.59
2016-07-14T09:47:17.306Z,1069.18
2016-07-14T09:48:16.747Z,1075.2
2016-07-14T09:49:16.235Z,1080.66
2016-07-14T09:50:16.271Z,1086.49
2016-07-14T09:51:16.246Z,1091.81
2016-07-14T09:52:16.248Z,1096.6
2016-07-14T09:53:16.234Z,1101.56
2016-07-14T09:54:16.225Z,1105.1
2016-07-14T09:55:16.229Z,1106.37
2016-07-14T09:56:16.242Z,1107.03
2016-07-14T09:57:16.250Z,1107.61
2016-07-14T09:58:16.228Z,1107.85
2016-07-14T09:59:16.257Z,1107.64
2016-07-14T10:00:16.266Z,1107.82
2016-07-14T10:01:16.262Z,1107.37
2016-07-14T10:02:16.283Z,1105.66
2016-07-14T10:03:16.280Z,1102.59
2016-07-14T10:04:16.268Z,1098.62
2016-07-14T10:05:16.261Z,1093.81
2016-07-14T10:06:16.267Z,1090
2016-07-14T10:07:16.229Z,1087.73
2016-07-14T10:08:16.253Z,1089.11
2016-07-14T10:09:16.332Z,1089.84
2016-07-14T10:10:16.243Z,1091.77
2016-07-14T10:11:16.226Z,1094.25
2016-07-14T10:12:16.242Z,1095.53
2016-07-14T10:13:16.279Z,1096.52
2016-07-14T10:14:16.257Z,1098.63
2016-07-14T10:15:16.328Z,1099.55
2016-07-14T10:16:16.259Z,1100.41
2016-07-14T10:17:16.256Z,1098.75
2016-07-14T10:18:16.272Z,1096.83
2016-07-14T10:19:16.250Z,1094.73
2016-07-14T10:20:16.257Z,1091.33
2016-07-14T10:21:16.258Z,1086.47
2016-07-14T10:22:16.250Z,1082.3
2016-07-14T10:23:16.255Z,1078.75
2016-07-14T10:24:16.259Z,1074.9
2016-07-14T10:25:16.247Z,1070.46
2016-07-14T10:26:16.253Z,1068.04
2016-07-14T10:27:16.258Z,1067.25
2016-07-14T10:28:16.293Z,1069.8
2016-07-14T10:29:16.247Z,1076.29
2016-07-14T10:30:16.267Z,1082.47
2016-07-14T10:31:16.248Z,1090.68
2016-07-14T10:32:16.257Z,1100.44
2016-07-14T10:33:16.259Z,1109
2016-07-14T10:34:16.296Z,1117.18
2016-07-14T10:35:16.253Z,1123.04
2016-07-14T10:36:16.260Z,1129.41
2016-07-14T10:37:16.283Z,1134.37
2016-07-14T10:38:16.247Z,1138.24
2016-07-14T10:39:16.274Z,1141.56
2016-07-14T10:40:16.292Z,1143.93
2016-07-14T10:41:16.265Z,1146.21
2016-07-14T10:42:16.264Z,1147.86
2016-07-14T10:43:16.354Z,1149.14
2016-07-14T10:44:16.270Z,1150.08
2016-07-14T10:45:16.325Z,1150.6
2016-07-14T10:46:16.301Z,1150.87
2016-07-14T10:47:16.293Z,1150.69
2016-07-14T10:48:16.272Z,1150.23
2016-07-14T10:49:16.868Z,1150.11
2016-07-14T10:50:16.300Z,1149.29
2016-07-14T10:51:16.278Z,1147.99
2016-07-14T10:52:16.275Z,1146.54
2016-07-14T10:53:16.315Z,1145.1
2016-07-14T10:54:16.287Z,1143.88
2016-07-14T10:55:16.295Z,1142.37
2016-07-14T10:56:16.293Z,1141.1
2016-07-14T10:57:16.300Z,1138.83
2016-07-14T10:58:16.291Z,1135.77
2016-07-14T10:59:16.273Z,1132.88
2016-07-14T11:00:16.309Z,1129.48
2016-07-14T11:01:16.301Z,1124.92
2016-07-14T11:02:16.313Z,1120.33
2016-07-14T11:03:16.324Z,1116.42
2016-07-14T11:04:16.328Z,1113.45
2016-07-14T11:05:16.303Z,1110.34
2016-07-14T11:06:16.320Z,1106.95
2016-07-14T11:07:16.296Z,1103.91
2016-07-14T11:08:16.323Z,1101.85
2016-07-14T11:09:16.295Z,1101.21
2016-07-14T11:10:16.278Z,1101.01
2016-07-14T11:11:16.285Z,1100.06
2016-07-14T11:12:16.299Z,1098.83
2016-07-14T11:13:45.679Z,1099.1
2016-07-14T11:14:16.936Z,1101.06
2016-07-14T11:15:16.963Z,1103.45
2016-07-14T11:16:16.949Z,1104.71
2016-07-14T11:17:16.958Z,1106.83
2016-07-14T11:18:16.937Z,1110.09
2016-07-14T11:19:16.931Z,1114.67
2016-07-14T11:20:16.951Z,1118.15
2016-07-14T11:21:16.927Z,1121.31
2016-07-14T11:22:16.996Z,1124.58
2016-07-14T11:23:16.942Z,1127.55
2016-07-14T11:24:16.962Z,1130.14
2016-07-14T11:25:16.949Z,1131.85
2016-07-14T11:26:16.947Z,1133.46
2016-07-14T11:27:16.968Z,1134.64
2016-07-14T11:28:16.961Z,1135.46
2016-07-14T11:29:16.948Z,1136.36
2016-07-14T11:30:16.939Z,1137.5
2016-07-14T11:31:16.950Z,1137.49
2016-07-14T11:32:16.956Z,1136.57
2016-07-14T11:33:16.949Z,1134.03
2016-07-14T11:34:16.954Z,1130.56
2016-07-14T11:35:16.949Z,1127.7
2016-07-14T11:36:16.952Z,1123.97
2016-07-14T11:37:16.947Z,1120.38
2016-07-14T11:38:16.968Z,1115.34
2016-07-14T11:39:16.957Z,1109.97
2016-07-14T11:40:16.999Z,1105.24
2016-07-14T11:41:16.963Z,1099.81
2016-07-14T11:42:16.955Z,1094.14
2016-07-14T11:43:16.961Z,1088.65
2016-07-14T11:44:16.984Z,1086.44
2016-07-14T11:45:16.957Z,1086.47
2016-07-14T11:46:16.950Z,1088.53
2016-07-14T11:47:16.957Z,1090.78
2016-07-14T11:48:16.965Z,1092.44
2016-07-14T11:49:16.956Z,1091.31
2016-07-14T11:50:16.995Z,1089.94
2016-07-14T11:51:16.963Z,1088.4
2016-07-14T11:52:16.964Z,1086.04
2016-07-14T11:53:16.960Z,1082.22
2016-07-14T11:54:16.999Z,1080.91
2016-07-14T11:55:16.980Z,1079.37
2016-07-14T11:56:17.011Z,1077.19
2016-07-14T11:57:17.014Z,1076.58
2016-07-14T11:58:16.992Z,1075.75
2016-07-14T11:59:16.968Z,1076.47
2016-07-14T12:00:16.989Z,1080.09
2016-07-14T12:01:16.981Z,1083.23
2016-07-14T12:02:16.972Z,1085.1
2016-07-14T12:03:16.979Z,1087.16
2016-07-14T12:04:16.971Z,1088.28
2016-07-14T12:05:16.978Z,1089.2
2016-07-14T12:06:16.981Z,1088.86
2016-07-14T12:08:17.181Z,1088.06
2016-07-14T12:10:16.988Z,1088.94
2016-07-14T12:11:16.982Z,1090.04
2016-07-14T12:12:16.992Z,1091.18